Time;durP1;ratioP1;P1;durP2;ratioP2;P2;SDS_P1;SDS_P2;PMS_P1;PMS_P2;Temp;Humidity;BMP_temperature;BMP_pressure;BME280_temperature;BME280_humidity;BME280_pressure;Samples;Min_cycle;Max_cycle;Signal;HPM_P1;HPM_P2
2021/11/08 00:01:18;;;;;;;;;19.75;16.00;;;;;10.30;63.98;102187.13;4983101;28;45472;-79
2021/11/08 00:03:47;;;;;;;;;24.50;21.00;;;;;10.28;63.99;102190.63;4982744;28;45246;-79
2021/11/08 00:06:16;;;;;;;;;24.75;19.25;;;;;10.27;63.91;102197.69;4981983;28;45807;-79
2021/11/08 00:08:41;;;;;;;;;24.25;20.75;;;;;10.24;63.79;102195.94;4982859;28;45441;-79
2021/11/08 00:11:08;;;;;;;;;23.00;17.00;;;;;10.24;63.68;102197.69;4982997;28;45614;-79
2021/11/08 00:13:36;;;;;;;;;22.75;17.75;;;;;10.21;63.84;102195.09;4982757;28;45707;-79
2021/11/08 00:21:21;;;;;;;;;19.50;18.50;;;;;10.15;63.89;102182.00;4962945;28;45256;-79
2021/11/08 00:23:47;;;;;;;;;22.00;18.25;;;;;10.12;63.67;102189.00;4963009;28;46726;-80
2021/11/08 00:26:13;;;;;;;;;22.00;18.00;;;;;10.09;63.78;102186.41;4969267;28;45922;-80
2021/11/08 00:28:39;;;;;;;;;21.50;18.50;;;;;10.07;63.83;102190.81;4982721;28;45365;-79
2021/11/08 00:31:05;;;;;;;;;21.00;19.25;;;;;10.04;64.08;102182.94;4981292;28;45449;-79
2021/11/08 00:33:30;;;;;;;;;20.25;19.00;;;;;10.04;63.92;102192.59;4967760;28;46357;-79
2021/11/08 00:35:59;;;;;;;;;23.50;19.00;;;;;10.02;64.31;102189.97;4980628;28;45353;-79
2021/11/08 00:38:25;;;;;;;;;20.00;17.50;;;;;10.02;63.99;102192.59;4982596;28;45480;-79
2021/11/08 00:40:52;;;;;;;;;21.25;16.00;;;;;10.02;64.32;102198.69;4982445;28;45248;-79
2021/11/08 00:43:18;;;;;;;;;18.75;18.75;;;;;9.99;63.92;102195.25;4982046;28;45425;-79
2021/11/08 00:45:44;;;;;;;;;18.50;18.00;;;;;9.99;64.20;102192.63;4975615;28;45422;-81
2021/11/08 00:48:13;;;;;;;;;19.50;17.50;;;;;9.95;64.15;102183.03;4982027;28;45514;-77
2021/11/08 00:50:39;;;;;;;;;19.75;14.50;;;;;9.92;63.94;102186.53;4982155;28;45227;-80
2021/11/08 00:53:05;;;;;;;;;21.75;18.75;;;;;9.93;64.22;102198.78;4982075;28;45259;-80
2021/11/08 00:55:32;;;;;;;;;24.50;21.00;;;;;9.90;63.91;102189.16;4980976;28;45410;-80
2021/11/08 00:58:00;;;;;;;;;19.00;15.75;;;;;9.89;64.64;102187.44;4982378;28;45413;-80
2021/11/08 01:00:29;;;;;;;;;20.00;18.00;;;;;9.88;64.30;102201.44;4982104;28;45460;-80
2021/11/08 01:02:58;;;;;;;;;24.25;22.50;;;;;9.87;64.30;102197.09;4975857;28;46183;-80
2021/11/08 01:05:23;;;;;;;;;27.25;20.00;;;;;9.87;63.96;102191.84;4974691;28;45497;-83
2021/11/08 01:07:49;;;;;;;;;30.25;25.25;;;;;9.83;64.21;102194.50;4977622;28;45640;-84
2021/11/08 01:10:19;;;;;;;;;24.75;21.75;;;;;9.83;63.97;102207.63;4962468;28;45334;-82
2021/11/08 01:12:45;;;;;;;;;27.75;23.75;;;;;9.79;64.20;102201.50;4962129;28;45376;-81
2021/11/08 01:15:13;;;;;;;;;23.75;19.50;;;;;9.78;64.27;102205.00;4966549;28;46105;-81
2021/11/08 01:17:40;;;;;;;;;22.00;19.50;;;;;9.76;63.89;102205.00;4981707;28;45463;-81
2021/11/08 01:20:07;;;;;;;;;20.25;18.25;;;;;9.76;64.27;102197.13;4974263;28;45302;-81
2021/11/08 01:22:35;;;;;;;;;23.00;20.00;;;;;9.74;64.58;102198.91;4962206;28;45510;-79
2021/11/08 01:25:00;;;;;;;;;22.00;18.75;;;;;9.74;64.67;102195.41;4962004;28;45232;-79
2021/11/08 01:27:36;;;;;;;;;20.75;17.00;;;;;9.72;64.75;102190.16;4974884;28;45231;-79
2021/11/08 01:30:08;;;;;;;;;23.75;18.75;;;;;9.73;64.35;102197.16;4962115;28;45670;-78
2021/11/08 01:32:34;;;;;;;;;17.50;12.25;;;;;9.71;64.17;102192.78;4962392;28;45448;-78
2021/11/08 01:34:59;;;;;;;;;26.25;20.75;;;;;9.68;64.37;102191.03;4961559;28;45253;-78
2021/11/08 01:37:25;;;;;;;;;24.25;18.25;;;;;9.65;64.29;102184.09;4980329;28;45422;-78
2021/11/08 01:39:51;;;;;;;;;21.25;16.00;;;;;9.66;64.12;102193.69;4981610;28;45164;-78
2021/11/08 01:42:17;;;;;;;;;19.75;16.25;;;;;9.61;64.31;102190.22;4981424;28;46089;-79
2021/11/08 01:44:43;;;;;;;;;20.00;17.25;;;;;9.60;64.15;102187.59;4975290;28;45417;-79
2021/11/08 01:47:09;;;;;;;;;20.25;16.50;;;;;9.58;64.13;102177.09;4979077;28;45360;-79
2021/11/08 01:49:35;;;;;;;;;20.50;17.25;;;;;9.57;64.61;102183.25;4981279;28;45405;-79
2021/11/08 01:52:01;;;;;;;;;20.00;18.00;;;;;9.57;64.29;102191.13;4981043;28;45455;-79
2021/11/08 01:54:27;;;;;;;;;16.00;14.00;;;;;9.56;64.36;102192.00;4980532;28;45318;-81
2021/11/08 01:56:56;;;;;;;;;14.00;13.75;;;;;9.53;64.11;102189.41;4971747;28;45212;-81
2021/11/08 01:59:23;;;;;;;;;23.50;17.00;;;;;9.51;64.53;102178.00;4974880;28;45468;-81
2021/11/08 02:01:50;;;;;;;;;22.25;19.75;;;;;9.49;64.54;102175.41;4981462;28;45550;-81
2021/11/08 02:04:16;;;;;;;;;20.00;15.50;;;;;9.47;64.36;102173.66;4965155;28;45463;-81
2021/11/08 02:06:42;;;;;;;;;16.75;13.75;;;;;9.47;64.30;102182.41;4979268;28;45508;-81
2021/11/08 02:09:07;;;;;;;;;23.75;18.00;;;;;9.44;64.36;102172.81;4971567;28;45428;-82
2021/11/08 02:11:35;;;;;;;;;15.50;14.00;;;;;9.41;64.22;102172.81;4961356;28;45384;-81
2021/11/08 02:14:01;;;;;;;;;19.50;16.75;;;;;9.38;64.57;102178.09;4961761;28;45476;-81
2021/11/08 02:16:27;;;;;;;;;19.25;18.25;;;;;9.36;64.40;102181.59;4971529;28;45459;-81
2021/11/08 02:18:52;;;;;;;;;21.50;19.25;;;;;9.35;64.57;102185.97;4980521;28;45283;-81
2021/11/08 02:21:18;;;;;;;;;20.25;15.75;;;;;9.36;64.34;102184.22;4977999;28;45546;-81
2021/11/08 02:23:48;;;;;;;;;18.00;15.50;;;;;9.31;64.35;102177.22;4979703;28;45455;-81
2021/11/08 02:26:16;;;;;;;;;19.50;16.75;;;;;9.29;64.55;102181.63;4979291;28;45232;-81
2021/11/08 02:28:47;;;;;;;;;15.75;13.75;;;;;9.29;64.19;102176.38;4965106;28;45434;-81
2021/11/08 02:31:16;;;;;;;;;15.25;14.00;;;;;9.27;64.54;102174.63;4961410;28;46479;-78
2021/11/08 02:33:42;;;;;;;;;18.75;18.00;;;;;9.25;64.25;102179.03;4975243;28;45426;-76
2021/11/08 02:36:08;;;;;;;;;16.25;14.75;;;;;9.25;64.57;102176.41;4969068;28;45289;-78
2021/11/08 02:38:37;;;;;;;;;14.00;12.75;;;;;9.21;64.36;102175.56;4980462;28;45367;-78
2021/11/08 02:41:03;;;;;;;;;15.75;13.00;;;;;9.20;64.44;102185.16;4980656;28;46204;-78
2021/11/08 02:43:29;;;;;;;;;20.75;16.75;;;;;9.19;64.40;102180.78;4979028;28;45243;-78
2021/11/08 02:48:29;;;;;;;;;15.00;15.00;;;;;9.15;64.09;102173.81;4980233;28;45998;-76
2021/11/08 02:51:07;;;;;;;;;17.25;14.50;;;;;9.13;64.28;102178.19;4980338;28;45411;-76
2021/11/08 02:53:34;;;;;;;;;18.25;16.00;;;;;9.14;64.47;102173.81;4980096;28;45286;-76
2021/11/08 02:55:59;;;;;;;;;21.25;17.25;;;;;9.12;64.83;102184.31;4979545;28;45471;-76
2021/11/08 02:58:27;;;;;;;;;26.50;22.50;;;;;9.10;64.43;102180.81;4979963;28;45429;-76
2021/11/08 03:00:55;;;;;;;;;26.25;20.25;;;;;9.10;64.67;102186.94;4980504;28;45303;-77
2021/11/08 03:03:33;;;;;;;;;26.00;23.00;;;;;9.06;64.79;102179.09;4980360;28;45801;-77
2021/11/08 03:06:04;;;;;;;;;23.00;21.00;;;;;9.03;64.87;102179.09;4968439;28;45491;-77
2021/11/08 03:08:30;;;;;;;;;19.00;18.75;;;;;9.02;64.58;102174.72;4980218;28;45235;-79
2021/11/08 03:10:57;;;;;;;;;23.25;19.50;;;;;9.03;64.54;102176.47;4980295;28;45967;-79
2021/11/08 03:13:25;;;;;;;;;22.75;22.50;;;;;9.00;64.61;102170.38;4979571;28;45249;-79
2021/11/08 03:18:40;;;;;;;;;22.75;20.00;;;;;8.94;64.42;102183.47;4979842;28;45567;-81
2021/11/08 03:21:15;;;;;;;;;24.00;22.00;;;;;8.93;64.97;102171.25;4979840;28;45291;-81
2021/11/08 03:23:41;;;;;;;;;19.50;18.50;;;;;8.93;64.80;102178.25;4980301;28;45395;-81
2021/11/08 03:28:41;;;;;;;;;23.75;19.50;;;;;8.89;64.39;102180.88;4979663;28;45144;-81
2021/11/08 03:31:10;;;;;;;;;28.00;22.25;;;;;8.88;64.29;102178.28;4979788;28;45484;-80
2021/11/08 03:33:35;;;;;;;;;26.50;22.75;;;;;8.87;64.91;102192.25;4979692;28;45428;-80
2021/11/08 03:36:02;;;;;;;;;23.75;19.00;;;;;8.87;64.61;102198.38;4968257;28;45532;-79
2021/11/08 03:38:28;;;;;;;;;25.00;21.00;;;;;8.84;64.88;102185.25;4965375;28;45547;-79
2021/11/08 03:40:54;;;;;;;;;26.00;23.75;;;;;8.83;64.44;102191.41;4969442;28;45407;-79
2021/11/08 03:43:20;;;;;;;;;25.00;20.50;;;;;8.84;64.28;102194.91;4979752;28;45148;-79
2021/11/08 03:45:47;;;;;;;;;24.00;23.25;;;;;8.81;64.16;102187.03;4979143;28;45540;-78
2021/11/08 03:48:14;;;;;;;;;25.25;22.00;;;;;8.80;64.72;102190.50;4979518;28;45456;-78
2021/11/08 03:50:41;;;;;;;;;21.75;19.75;;;;;8.78;64.79;102187.91;4979310;28;45404;-78
2021/11/08 03:53:07;;;;;;;;;25.25;21.25;;;;;8.78;64.39;102191.41;4965871;28;45250;-79
2021/11/08 03:55:33;;;;;;;;;22.00;19.25;;;;;8.73;64.73;102180.06;4972641;28;45662;-79
2021/11/08 03:57:59;;;;;;;;;23.00;18.75;;;;;8.71;64.57;102179.19;4970602;28;45463;-81
2021/11/08 04:00:26;;;;;;;;;22.75;21.00;;;;;8.74;65.04;102178.31;4978684;28;46543;-80
2021/11/08 04:02:54;;;;;;;;;18.50;16.75;;;;;8.70;65.04;102166.94;4979683;28;45682;-80
2021/11/08 04:05:21;;;;;;;;;22.50;19.50;;;;;8.71;65.03;102173.94;4948126;28;45484;-80
2021/11/08 04:07:48;;;;;;;;;24.25;19.50;;;;;8.72;65.15;102172.16;4960184;28;45231;-80
2021/11/08 04:10:16;;;;;;;;;17.50;17.00;;;;;8.69;64.88;102172.19;4962284;28;46802;-79
2021/11/08 04:12:43;;;;;;;;;21.75;19.00;;;;;8.69;64.96;102178.31;4967388;28;45759;-79
2021/11/08 04:15:13;;;;;;;;;21.75;18.00;;;;;8.68;65.23;102171.31;4966667;28;45437;-79
2021/11/08 04:17:44;;;;;;;;;22.50;21.00;;;;;8.69;65.27;102169.56;4963247;28;45277;-79
2021/11/08 04:20:12;;;;;;;;;26.75;21.00;;;;;8.66;64.37;102162.59;4963050;28;46390;-79
2021/11/08 04:22:38;;;;;;;;;22.25;19.25;;;;;8.65;64.89;102172.19;4963238;28;45701;-79
2021/11/08 04:25:04;;;;;;;;;23.25;20.00;;;;;8.65;65.17;102181.81;4963723;28;45478;-79
2021/11/08 04:27:33;;;;;;;;;23.75;17.00;;;;;8.63;64.88;102179.19;4978357;28;45243;-80
2021/11/08 04:29:59;;;;;;;;;18.00;14.75;;;;;8.65;64.71;102184.44;4964067;28;46240;-81
2021/11/08 04:32:30;;;;;;;;;20.25;17.00;;;;;8.61;64.93;102178.31;4963129;28;45408;-81
2021/11/08 04:35:04;;;;;;;;;21.75;18.50;;;;;8.62;64.64;102187.91;4962996;28;45231;-82
2021/11/08 04:37:53;;;;;;;;;23.50;20.50;;;;;8.63;65.12;102188.81;4982498;28;45742;-81
2021/11/08 05:31:46;;;;;;;;;21.25;19.00;;;;;8.51;65.63;102193.16;4962205;28;45188;-85
2021/11/08 05:34:12;;;;;;;;;23.00;18.50;;;;;8.54;66.00;102192.28;4978656;28;46435;-83
2021/11/08 05:36:38;;;;;;;;;20.00;17.00;;;;;8.53;66.43;102190.53;4972947;28;45164;-80
2021/11/08 05:39:05;;;;;;;;;23.75;22.00;;;;;8.55;65.92;102197.50;4962139;28;45249;-80
2021/11/08 05:41:31;;;;;;;;;24.50;19.50;;;;;8.59;66.39;102200.16;4962379;28;45468;-81
2021/11/08 05:43:56;;;;;;;;;25.50;22.25;;;;;8.58;66.29;102203.63;4976701;28;45354;-81
2021/11/08 05:46:22;;;;;;;;;25.75;20.25;;;;;8.60;65.96;102208.03;4969263;28;45847;-83
2021/11/08 05:48:48;;;;;;;;;27.25;25.00;;;;;8.64;65.92;102219.41;4961895;28;45349;-83
2021/11/08 05:51:14;;;;;;;;;28.50;23.50;;;;;8.62;66.30;102208.88;4961772;28;45330;-83
2021/11/08 05:53:44;;;;;;;;;25.25;21.75;;;;;8.64;66.42;102214.16;4973832;28;45500;-84
2021/11/08 06:50:36;;;;;;;;;69.75;52.75;;;;;8.61;65.95;102264.81;4976488;28;45336;-81
2021/11/08 06:53:06;;;;;;;;;53.50;41.50;;;;;8.60;65.72;102262.19;4973955;28;45447;-81
2021/11/08 06:55:32;;;;;;;;;57.25;43.25;;;;;8.61;65.83;102264.81;4965993;28;45529;-81
2021/11/08 06:58:03;;;;;;;;;85.50;67.00;;;;;8.62;66.29;102265.66;4979597;28;45475;-81
2021/11/08 07:00:29;;;;;;;;;76.25;56.50;;;;;8.64;66.25;102263.94;4969076;28;46965;-80
2021/11/08 07:02:55;;;;;;;;;75.50;57.00;;;;;8.63;66.13;102273.56;4977273;28;45613;-80
2021/11/08 07:05:20;;;;;;;;;67.75;53.50;;;;;8.62;65.81;102279.66;4974828;28;45487;-81
2021/11/08 07:07:47;;;;;;;;;70.75;50.50;;;;;8.63;65.89;102283.16;4965162;28;46522;-81
2021/11/08 07:10:12;;;;;;;;;58.50;47.00;;;;;8.62;65.89;102277.03;4974054;28;45436;-81
2021/11/08 07:12:38;;;;;;;;;60.50;47.25;;;;;8.63;66.22;102284.03;4962044;28;45368;-80
2021/11/08 07:15:06;;;;;;;;;57.00;46.00;;;;;8.62;65.80;102274.41;4968739;28;45485;-81
2021/11/08 07:17:32;;;;;;;;;50.00;36.50;;;;;8.63;66.05;102276.19;4975943;28;46811;-81
2021/11/08 07:20:00;;;;;;;;;56.75;43.75;;;;;8.64;66.41;102284.91;4974945;28;45903;-81
2021/11/08 07:22:26;;;;;;;;;89.75;77.00;;;;;8.64;66.15;102279.69;4960726;28;45465;-80
2021/11/08 07:24:52;;;;;;;;;83.25;70.25;;;;;8.63;66.29;102284.03;4964410;28;46054;-81
2021/11/08 07:27:17;;;;;;;;;82.50;63.25;;;;;8.65;66.20;102291.91;4976218;28;45490;-81
2021/11/08 07:29:43;;;;;;;;;62.25;47.50;;;;;8.64;66.28;102290.16;4979107;28;45452;-81
2021/11/08 07:32:08;;;;;;;;;61.75;49.00;;;;;8.67;66.49;102292.75;4974252;28;45428;-80
2021/11/08 07:34:34;;;;;;;;;62.50;48.00;;;;;8.66;66.27;102291.91;4977964;28;45571;-80
2021/11/08 07:37:00;;;;;;;;;62.25;46.00;;;;;8.66;66.55;102288.41;4978878;28;45314;-79
2021/11/08 07:39:25;;;;;;;;;54.00;44.50;;;;;8.67;66.11;102300.63;4983103;28;45443;-79
2021/11/08 07:41:50;;;;;;;;;59.50;44.00;;;;;8.65;66.62;102308.50;4962729;28;45421;-79
2021/11/08 07:44:16;;;;;;;;;56.75;45.00;;;;;8.65;66.69;102302.38;4960941;28;46571;-79
2021/11/08 07:46:42;;;;;;;;;54.00;42.00;;;;;8.68;66.80;102310.25;4962802;28;47146;-79
2021/11/08 07:49:08;;;;;;;;;52.25;41.75;;;;;8.67;66.79;102300.63;4980717;28;45205;-79
2021/11/08 07:51:33;;;;;;;;;47.00;40.75;;;;;8.69;66.88;102296.28;4969838;28;45157;-79
2021/11/08 07:53:58;;;;;;;;;51.50;41.25;;;;;8.71;67.09;102304.13;4966573;28;45223;-79
2021/11/08 07:56:24;;;;;;;;;51.00;40.50;;;;;8.74;67.05;102307.63;4976980;28;45475;-79
2021/11/08 07:58:50;;;;;;;;;51.25;39.75;;;;;8.76;67.05;102310.25;4980491;28;45898;-80
2021/11/08 08:01:16;;;;;;;;;45.00;38.00;;;;;8.78;66.91;102308.50;4978415;28;45716;-80
2021/11/08 08:03:42;;;;;;;;;50.00;38.50;;;;;8.82;67.67;102310.25;4973622;28;47783;-81
2021/11/08 08:06:08;;;;;;;;;46.00;38.25;;;;;8.87;67.61;102321.63;4977952;28;46570;-81
2021/11/08 08:08:34;;;;;;;;;44.00;37.25;;;;;8.90;67.28;102320.75;4977380;28;45534;-81
2021/11/08 08:11:00;;;;;;;;;43.00;36.00;;;;;8.95;67.57;102319.00;4977489;28;45477;-81
2021/11/08 08:13:28;;;;;;;;;37.75;34.00;;;;;9.00;67.64;102318.97;4979655;28;45544;-81
2021/11/08 08:16:00;;;;;;;;;45.75;37.75;;;;;9.02;68.08;102322.47;4978598;28;45611;-81
2021/11/08 08:18:27;;;;;;;;;42.50;36.25;;;;;9.07;68.35;102322.47;4972328;28;45749;-81
2021/11/08 08:20:53;;;;;;;;;43.25;36.25;;;;;9.14;68.09;102321.59;4977696;28;46075;-81
2021/11/08 08:23:18;;;;;;;;;45.75;37.75;;;;;9.20;67.93;102325.97;4970204;28;45402;-81
2021/11/08 08:25:44;;;;;;;;;42.00;34.25;;;;;9.25;68.04;102325.94;4972882;28;45930;-81
2021/11/08 08:28:10;;;;;;;;;44.75;35.50;;;;;9.30;68.04;102324.19;4978415;28;45512;-81
2021/11/08 08:30:36;;;;;;;;;48.25;35.50;;;;;9.36;68.42;102323.31;4968783;28;45718;-81
2021/11/08 08:33:01;;;;;;;;;44.75;35.25;;;;;9.42;68.34;102326.78;4975437;28;45409;-81
2021/11/08 08:35:27;;;;;;;;;40.50;35.00;;;;;9.45;68.11;102321.53;4978012;28;46037;-79
2021/11/08 08:37:52;;;;;;;;;46.25;36.50;;;;;9.52;68.22;102332.88;4964357;28;45480;-78
2021/11/08 08:40:18;;;;;;;;;45.50;35.25;;;;;9.56;68.49;102329.38;4978181;28;45715;-79
2021/11/08 08:42:43;;;;;;;;;46.75;36.50;;;;;9.61;68.45;102331.09;4963079;28;45406;-79
2021/11/08 08:45:10;;;;;;;;;44.50;35.25;;;;;9.68;68.04;102335.44;4979990;28;45409;-78
2021/11/08 08:47:37;;;;;;;;;43.00;35.00;;;;;9.76;68.37;102340.69;4977831;28;45456;-78
2021/11/08 08:50:05;;;;;;;;;41.75;34.25;;;;;9.77;68.52;102334.56;4970687;28;45504;-80
2021/11/08 08:52:31;;;;;;;;;46.25;36.25;;;;;9.83;68.07;102342.41;4956289;28;46174;-80
2021/11/08 08:54:56;;;;;;;;;50.75;39.50;;;;;9.91;68.08;102345.00;4978132;28;46168;-80
2021/11/08 08:57:22;;;;;;;;;51.25;41.00;;;;;9.93;68.31;102351.13;4977782;28;45438;-80
2021/11/08 08:59:48;;;;;;;;;51.25;42.50;;;;;9.97;67.75;102338.84;4969927;28;46317;-80
2021/11/08 09:02:13;;;;;;;;;50.50;40.00;;;;;10.01;67.96;102340.59;4961113;28;45485;-80
2021/11/08 09:04:39;;;;;;;;;49.75;41.00;;;;;10.07;67.84;102348.44;4977128;28;45405;-80
2021/11/08 09:07:06;;;;;;;;;48.75;40.00;;;;;10.10;67.91;102343.16;4980181;28;45603;-80
2021/11/08 09:09:32;;;;;;;;;47.25;37.25;;;;;10.16;67.68;102344.00;4976648;28;45444;-80
2021/11/08 09:11:58;;;;;;;;;50.00;39.00;;;;;10.19;67.80;102344.88;4976968;28;45786;-80
2021/11/08 09:14:28;;;;;;;;;48.75;39.00;;;;;10.22;67.80;102338.75;4978967;28;45412;-80
2021/11/08 09:16:54;;;;;;;;;45.25;39.00;;;;;10.27;67.86;102341.34;4960611;28;46419;-82
2021/11/08 09:19:20;;;;;;;;;51.25;39.25;;;;;10.31;67.78;102343.94;4971915;28;45468;-80
2021/11/08 09:21:45;;;;;;;;;51.50;37.75;;;;;10.34;67.38;102346.56;4979953;28;45801;-80
2021/11/08 09:24:10;;;;;;;;;46.50;36.25;;;;;10.40;67.73;102343.00;4952298;28;46245;-82
2021/11/08 09:26:36;;;;;;;;;41.50;34.00;;;;;10.44;67.49;102343.84;4972207;28;45429;-80
2021/11/08 09:29:04;;;;;;;;;46.00;34.75;;;;;10.49;67.46;102336.81;4968999;28;45353;-80
2021/11/08 09:31:30;;;;;;;;;37.75;31.25;;;;;10.52;67.38;102333.34;4979583;28;45472;-80
2021/11/08 09:34:10;;;;;;;;;35.50;31.25;;;;;10.58;67.42;102334.16;4966103;28;46456;-80
2021/11/08 09:36:37;;;;;;;;;26.50;24.00;;;;;10.60;67.39;102328.88;4975072;28;45461;-80
2021/11/08 09:39:09;;;;;;;;;26.25;22.25;;;;;10.64;67.13;102335.84;4975734;28;45739;-80
2021/11/08 09:41:37;;;;;;;;;26.00;24.75;;;;;10.67;66.92;102330.56;4974656;28;45499;-80
2021/11/08 09:44:07;;;;;;;;;22.50;20.00;;;;;10.72;66.89;102330.53;4979852;28;46207;-81
2021/11/08 09:46:34;;;;;;;;;26.00;23.25;;;;;10.77;66.33;102331.38;4976464;28;45817;-80
2021/11/08 09:49:02;;;;;;;;;26.75;21.00;;;;;10.82;65.90;102335.72;4979191;28;45353;-81
2021/11/08 09:51:29;;;;;;;;;21.50;18.75;;;;;10.84;65.70;102339.22;4962319;28;47192;-81
2021/11/08 09:53:56;;;;;;;;;28.50;26.00;;;;;10.90;65.34;102340.03;4978791;28;45644;-80
2021/11/08 09:56:21;;;;;;;;;25.25;19.50;;;;;10.93;65.22;102326.00;4978203;28;45679;-81
2021/11/08 09:58:47;;;;;;;;;38.25;30.00;;;;;10.98;65.11;102326.81;4980224;28;45325;-79
2021/11/08 10:01:14;;;;;;;;;21.00;19.25;;;;;11.05;64.79;102329.38;4978510;28;45192;-79
2021/11/08 10:03:44;;;;;;;;;26.25;22.75;;;;;11.08;64.11;102324.97;4965479;28;46087;-80
2021/11/08 10:06:10;;;;;;;;;26.00;18.00;;;;;11.15;63.77;102331.03;4957125;28;46644;-83
2021/11/08 10:08:37;;;;;;;;;21.00;17.75;;;;;11.21;63.96;102330.97;4978886;28;45509;-81
2021/11/08 10:11:07;;;;;;;;;19.50;16.25;;;;;11.29;63.77;102322.13;4972879;28;45502;-79
2021/11/08 10:13:33;;;;;;;;;49.25;35.75;;;;;11.36;63.36;102322.03;4977996;28;45520;-79
2021/11/08 10:16:03;;;;;;;;;38.00;29.00;;;;;11.43;63.00;102319.38;4976826;28;45934;-80
2021/11/08 10:18:29;;;;;;;;;29.25;21.00;;;;;11.48;63.20;102328.94;4959858;28;45569;-79
2021/11/08 10:21:05;;;;;;;;;10.50;9.00;;;;;11.54;62.08;102328.00;4960890;28;45479;-78
2021/11/08 10:23:31;;;;;;;;;14.75;10.50;;;;;11.60;62.06;102327.06;4969371;28;45450;-79
2021/11/08 10:25:56;;;;;;;;;19.00;14.50;;;;;11.66;61.86;102323.47;4977574;28;45464;-79
2021/11/08 10:28:24;;;;;;;;;13.75;12.25;;;;;11.69;61.84;102321.69;4961050;28;45235;-79
2021/11/08 10:31:00;;;;;;;;;9.00;9.00;;;;;11.75;61.18;102333.03;4963234;28;45240;-79
2021/11/08 10:33:30;;;;;;;;;15.50;10.00;;;;;11.79;61.67;102330.34;4973444;28;46222;-79
2021/11/08 10:36:00;;;;;;;;;11.50;10.50;;;;;11.84;61.12;102324.13;4960665;28;45552;-79
2021/11/08 10:38:32;;;;;;;;;12.75;10.75;;;;;11.87;61.62;102319.72;4960783;28;45307;-79
2021/11/08 10:41:14;;;;;;;;;20.00;13.75;;;;;11.93;60.44;102321.38;4963524;28;45445;-79
2021/11/08 10:43:47;;;;;;;;;16.25;10.50;;;;;11.98;60.60;102326.59;4980089;28;46049;-79
2021/11/08 10:46:20;;;;;;;;;16.00;15.00;;;;;12.01;60.34;102321.28;4980125;28;45411;-79
2021/11/08 10:48:52;;;;;;;;;12.50;10.50;;;;;12.04;59.48;102329.16;4980103;28;45441;-79
2021/11/08 10:51:22;;;;;;;;;11.00;8.50;;;;;12.09;59.29;102331.72;4971980;28;45263;-78
2021/11/08 10:53:54;;;;;;;;;14.00;11.50;;;;;12.13;59.38;102318.50;4979968;28;46307;-78
2021/11/08 10:56:38;;;;;;;;;10.00;7.25;;;;;12.18;59.43;102312.28;4979956;28;45658;-79
2021/11/08 10:59:09;;;;;;;;;13.25;13.00;;;;;12.23;59.58;102321.00;4962193;28;45362;-79
2021/11/08 11:01:58;;;;;;;;;13.00;10.00;;;;;12.27;58.62;102313.03;4979850;28;45341;-79
2021/11/08 11:04:46;;;;;;;;;9.50;7.75;;;;;12.31;59.14;102305.97;4979379;28;45745;-78
2021/11/08 11:07:20;;;;;;;;;10.00;8.00;;;;;12.36;59.10;102312.03;4962314;28;45630;-78
2021/11/08 11:09:46;;;;;;;;;9.50;8.75;;;;;12.42;59.12;102315.47;4980041;28;45385;-79
2021/11/08 11:12:14;;;;;;;;;9.50;7.50;;;;;12.48;58.36;102310.09;4960570;28;45556;-79
2021/11/08 11:14:50;;;;;;;;;15.00;10.00;;;;;12.51;57.82;102304.78;4979074;28;45421;-79
2021/11/08 11:17:28;;;;;;;;;8.50;8.50;;;;;12.53;58.32;102308.25;4973429;28;45414;-79
2021/11/08 11:20:05;;;;;;;;;9.75;9.00;;;;;12.59;57.64;102313.41;4979055;28;45168;-79
2021/11/08 11:22:33;;;;;;;;;29.00;18.00;;;;;12.62;57.75;102312.50;4979273;28;45212;-79
2021/11/08 11:24:58;;;;;;;;;12.25;7.50;;;;;12.65;57.39;102315.09;4979351;28;45495;-79
2021/11/08 11:27:23;;;;;;;;;13.00;8.00;;;;;12.71;57.24;102306.22;4978713;28;45429;-79
2021/11/08 11:29:49;;;;;;;;;9.75;9.00;;;;;12.73;57.02;102304.41;4978569;28;45329;-79
2021/11/08 11:32:25;;;;;;;;;13.50;10.00;;;;;12.78;57.83;102305.22;4979454;28;45571;-79
2021/11/08 11:34:53;;;;;;;;;9.50;6.25;;;;;12.86;57.36;102304.22;4978333;28;46495;-79
2021/11/08 11:37:21;;;;;;;;;13.50;10.50;;;;;12.87;56.46;102292.75;4978374;28;45997;-79
2021/11/08 11:39:47;;;;;;;;;8.75;6.75;;;;;12.89;56.59;102298.88;4979670;28;45391;-79
2021/11/08 11:42:12;;;;;;;;;14.75;8.00;;;;;12.93;56.21;102295.28;4979311;28;45485;-79
2021/11/08 11:44:38;;;;;;;;;11.00;6.25;;;;;12.98;56.28;102289.94;4979271;28;46335;-79
2021/11/08 11:47:14;;;;;;;;;8.25;5.00;;;;;12.99;55.82;102295.16;4979241;28;45349;-79
2021/11/08 11:49:45;;;;;;;;;12.25;8.75;;;;;13.00;55.38;102290.75;4977782;28;45448;-79
2021/11/08 11:52:10;;;;;;;;;8.25;4.00;;;;;13.02;55.80;102283.69;4973801;28;45421;-79
2021/11/08 11:54:38;;;;;;;;;12.25;10.75;;;;;13.04;55.32;102281.88;4979155;28;45434;-79
2021/11/08 11:57:05;;;;;;;;;7.50;7.50;;;;;13.12;55.15;102279.97;4978847;28;45417;-79
2021/11/08 11:59:30;;;;;;;;;5.75;5.00;;;;;13.18;54.56;102280.75;4971316;28;45513;-79
2021/11/08 12:01:56;;;;;;;;;13.50;9.00;;;;;13.22;54.90;102270.09;4979244;28;45361;-79
2021/11/08 12:04:23;;;;;;;;;11.50;8.50;;;;;13.28;54.63;102277.03;4978733;28;46111;-79
2021/11/08 12:06:52;;;;;;;;;8.75;8.25;;;;;13.33;54.65;102269.91;4970487;28;45311;-79
2021/11/08 12:09:20;;;;;;;;;6.25;4.00;;;;;13.38;54.73;102264.53;4979245;28;45498;-79
2021/11/08 12:11:53;;;;;;;;;10.25;10.25;;;;;13.44;54.61;102272.31;4959703;28;45469;-79
2021/11/08 12:14:28;;;;;;;;;8.25;6.25;;;;;13.49;54.43;102267.81;4961453;28;46164;-79
2021/11/08 12:17:13;;;;;;;;;5.25;3.75;;;;;13.54;54.17;102259.78;4962075;28;45650;-79
2021/11/08 12:19:42;;;;;;;;;7.75;6.00;;;;;13.57;54.05;102256.25;4978627;28;45320;-79
2021/11/08 12:22:13;;;;;;;;;10.50;7.00;;;;;13.58;53.29;102261.47;4975670;28;45387;-79
2021/11/08 12:24:39;;;;;;;;;16.50;8.75;;;;;13.60;54.04;102250.91;4970107;28;46407;-78
2021/11/08 12:27:09;;;;;;;;;14.50;9.50;;;;;13.63;53.53;102255.25;4972043;28;47114;-78
2021/11/08 12:29:49;;;;;;;;;7.50;5.00;;;;;13.65;53.43;102258.72;4961981;28;45467;-79
2021/11/08 12:32:15;;;;;;;;;7.25;4.25;;;;;13.69;52.61;102252.47;4981853;28;45393;-79
2021/11/08 12:34:46;;;;;;;;;9.00;6.75;;;;;13.69;52.65;102245.41;4981748;28;45536;-79
2021/11/08 12:37:13;;;;;;;;;6.25;5.25;;;;;13.69;52.83;102241.91;4982172;28;45580;-78
2021/11/08 12:39:40;;;;;;;;;13.75;7.50;;;;;13.71;52.52;102240.97;4982246;28;45477;-78
2021/11/08 12:42:10;;;;;;;;;6.50;4.00;;;;;13.74;52.51;102245.31;4968541;28;45522;-79
2021/11/08 12:44:35;;;;;;;;;3.50;2.00;;;;;13.73;51.64;102247.06;4982324;28;46240;-79
2021/11/08 12:47:01;;;;;;;;;7.50;4.50;;;;;13.71;52.36;102237.44;4981662;28;45160;-79
2021/11/08 12:49:27;;;;;;;;;7.75;5.25;;;;;13.72;51.97;102244.47;4980715;28;45427;-79
2021/11/08 12:52:14;;;;;;;;;4.75;4.00;;;;;13.71;52.36;102230.38;4981770;28;45496;-79
2021/11/08 12:55:05;;;;;;;;;6.75;6.75;;;;;13.76;52.34;102235.56;4981255;28;45746;-79
2021/11/08 12:57:33;;;;;;;;;35.75;19.75;;;;;13.75;52.28;102220.63;4981526;28;45261;-79
2021/11/08 13:00:03;;;;;;;;;16.50;8.00;;;;;13.79;52.26;102217.00;4981851;28;45354;-79
2021/11/08 13:02:33;;;;;;;;;9.25;7.75;;;;;13.80;52.28;102215.25;4981738;28;46109;-79
2021/11/08 13:05:06;;;;;;;;;12.50;10.25;;;;;13.79;52.62;102214.38;4981150;28;45534;-79
2021/11/08 13:07:39;;;;;;;;;7.25;6.50;;;;;13.82;52.49;102213.44;4972506;28;45263;-79
2021/11/08 13:10:19;;;;;;;;;8.75;7.75;;;;;13.82;51.88;102208.16;4981690;28;45258;-79
2021/11/08 13:12:46;;;;;;;;;7.50;2.75;;;;;13.76;51.55;102206.50;4981547;28;45444;-79
2021/11/08 13:15:21;;;;;;;;;8.75;7.25;;;;;13.79;52.39;102206.44;4981509;28;45298;-79
2021/11/08 13:17:52;;;;;;;;;7.50;7.50;;;;;13.81;52.63;102204.63;4979616;28;45441;-79
2021/11/08 13:20:21;;;;;;;;;10.75;6.50;;;;;13.86;52.12;102196.59;4981326;28;45298;-79